Time;durP1;ratioP1;P1;durP2;ratioP2;P2;SDS_P1;SDS_P2;PMS_P1;PMS_P2;Temp;Humidity;BMP_temperature;BMP_pressure;BME280_temperature;BME280_humidity;BME280_pressure;Samples;Min_cycle;Max_cycle;Signal;HPM_P1;HPM_P2
2021/12/27 00:01:10;;;;;;;60.10;28.88;;;;;;;-8.50;83.91;100602.34;7397507;19;20039;-66
2021/12/27 00:03:38;;;;;;;63.13;27.90;;;;;;;-8.47;84.13;100599.97;7396693;19;20028;-66
2021/12/27 00:06:09;;;;;;;63.08;29.75;;;;;;;-8.45;83.60;100593.25;7395300;19;20366;-66
2021/12/27 00:08:42;;;;;;;57.72;29.08;;;;;;;-8.41;83.89;100592.63;7397750;19;20040;-66
2021/12/27 00:11:11;;;;;;;61.60;29.05;;;;;;;-8.38;84.00;100592.81;7395109;19;20483;-66
2021/12/27 00:13:39;;;;;;;56.13;27.88;;;;;;;-8.33;83.82;100602.34;7397189;19;20042;-66
2021/12/27 00:16:09;;;;;;;65.10;28.52;;;;;;;-8.31;83.53;100593.09;7395223;19;20036;-67
2021/12/27 00:18:38;;;;;;;62.60;28.67;;;;;;;-8.27;83.36;100595.03;7396590;19;20429;-66
2021/12/27 00:21:07;;;;;;;60.22;28.98;;;;;;;-8.26;83.58;100577.28;7397582;19;20035;-66
2021/12/27 00:23:35;;;;;;;64.15;29.60;;;;;;;-8.24;82.77;100569.72;7394863;19;20014;-69
2021/12/27 00:26:06;;;;;;;60.42;28.42;;;;;;;-8.21;83.07;100572.44;7395266;19;20022;-67
2021/12/27 00:28:35;;;;;;;56.75;28.08;;;;;;;-8.18;83.21;100567.47;7396873;19;20035;-67
2021/12/27 00:31:04;;;;;;;58.35;27.35;;;;;;;-8.15;82.99;100570.19;7394791;19;20036;-67
2021/12/27 00:33:33;;;;;;;59.83;28.10;;;;;;;-8.14;82.72;100559.19;7397145;19;20031;-67
2021/12/27 00:36:01;;;;;;;55.25;25.85;;;;;;;-8.11;82.70;100556.81;7394709;19;20043;-68
2021/12/27 00:38:29;;;;;;;57.80;27.27;;;;;;;-8.13;82.47;100547.38;7396446;19;20036;-72
2021/12/27 00:40:57;;;;;;;53.90;28.05;;;;;;;-8.05;83.04;100553.69;7394270;19;20475;-72
2021/12/27 00:43:28;;;;;;;51.33;26.33;;;;;;;-8.00;83.15;100543.75;7395782;19;20022;-69
2021/12/27 00:46:10;;;;;;;54.42;27.08;;;;;;;-7.97;83.11;100547.34;7394103;19;20010;-67
2021/12/27 00:48:38;;;;;;;52.15;25.35;;;;;;;-7.93;82.90;100545.81;7396201;19;20018;-67
2021/12/27 00:51:08;;;;;;;58.70;27.45;;;;;;;-7.88;82.45;100541.81;7396064;19;20035;-67
2021/12/27 00:53:37;;;;;;;63.65;28.52;;;;;;;-7.86;82.54;100541.09;7394672;19;20014;-67
2021/12/27 00:56:05;;;;;;;56.72;25.58;;;;;;;-7.82;82.82;100538.69;7394155;19;20030;-67
2021/12/27 00:58:36;;;;;;;59.55;26.95;;;;;;;-7.79;82.52;100549.91;7395790;19;20022;-68
2021/12/27 01:01:04;;;;;;;55.30;27.80;;;;;;;-7.76;82.41;100547.53;7394512;19;20031;-67
2021/12/27 01:03:33;;;;;;;53.53;28.25;;;;;;;-7.73;82.51;100542.56;7395142;19;20031;-67
2021/12/27 01:06:01;;;;;;;60.60;26.73;;;;;;;-7.70;82.43;100540.16;7393786;19;20022;-67
2021/12/27 01:08:30;;;;;;;59.35;27.95;;;;;;;-7.67;82.30;100539.47;7395656;19;20045;-67
2021/12/27 01:11:23;;;;;;;58.85;28.30;;;;;;;-7.67;81.71;100534.38;7393827;19;20014;-67
2021/12/27 01:14:08;;;;;;;57.13;26.52;;;;;;;-7.63;81.80;100537.91;7395796;19;20078;-67
2021/12/27 01:16:37;;;;;;;60.15;27.15;;;;;;;-7.61;81.99;100533.78;7395770;19;20360;-67
2021/12/27 01:19:06;;;;;;;62.58;27.77;;;;;;;-7.62;81.05;100526.91;7395230;19;20035;-67
2021/12/27 01:21:35;;;;;;;54.40;29.10;;;;;;;-7.57;81.76;100530.56;7393472;19;20018;-67
2021/12/27 01:24:03;;;;;;;53.65;26.67;;;;;;;-7.56;81.57;100524.66;7393935;19;20479;-67
2021/12/27 01:26:31;;;;;;;53.97;25.92;;;;;;;-7.55;81.73;100523.88;7393180;19;20027;-67
2021/12/27 01:29:07;;;;;;;62.15;27.25;;;;;;;-7.57;81.62;100521.25;7392735;19;20483;-67
2021/12/27 01:31:35;;;;;;;56.72;28.23;;;;;;;-7.54;81.97;100523.94;7395370;19;20010;-68
2021/12/27 01:34:03;;;;;;;58.92;26.73;;;;;;;-7.51;81.57;100524.91;7393454;19;20022;-67
2021/12/27 01:36:33;;;;;;;54.08;27.63;;;;;;;-7.50;81.45;100521.56;7399487;19;20033;-67
2021/12/27 01:39:01;;;;;;;52.63;25.38;;;;;;;-7.51;81.53;100518.13;7399040;19;20513;-68
2021/12/27 01:41:29;;;;;;;59.58;27.55;;;;;;;-7.49;81.53;100516.53;7402258;19;20023;-67
2021/12/27 01:43:57;;;;;;;57.20;28.58;;;;;;;-7.45;81.77;100512.47;7398855;19;20501;-67
2021/12/27 01:46:30;;;;;;;55.63;27.77;;;;;;;-7.43;81.97;100518.47;7399534;19;20011;-67
2021/12/27 01:48:59;;;;;;;51.70;26.85;;;;;;;-7.41;82.06;100514.34;7402469;19;20011;-68
2021/12/27 01:51:30;;;;;;;55.55;28.20;;;;;;;-7.40;81.71;100503.34;7399133;19;20015;-67
2021/12/27 01:53:59;;;;;;;56.67;28.17;;;;;;;-7.39;81.73;100488.13;7402225;19;20018;-68
2021/12/27 01:56:28;;;;;;;62.53;26.27;;;;;;;-7.38;80.90;100497.53;7399080;19;20022;-67
2021/12/27 01:58:58;;;;;;;57.00;26.35;;;;;;;-7.38;80.63;100502.63;7401857;19;20014;-67
2021/12/27 02:01:29;;;;;;;58.00;26.52;;;;;;;-7.36;81.64;100503.53;7399256;19;20018;-68
2021/12/27 02:03:58;;;;;;;56.58;26.75;;;;;;;-7.32;81.28;100499.47;7401653;19;20385;-68
2021/12/27 02:06:27;;;;;;;52.70;27.25;;;;;;;-7.31;80.54;100492.72;7399977;19;20015;-68
2021/12/27 02:08:56;;;;;;;56.53;27.00;;;;;;;-7.29;80.85;100493.63;7403186;19;20090;-69
2021/12/27 02:11:24;;;;;;;62.05;27.95;;;;;;;-7.30;80.91;100490.22;7403913;19;20028;-68
2021/12/27 02:13:52;;;;;;;53.83;26.08;;;;;;;-7.27;81.24;100494.59;7406764;19;20018;-68
2021/12/27 02:16:23;;;;;;;61.38;28.63;;;;;;;-7.25;81.14;100488.75;7402139;19;20016;-68
2021/12/27 02:18:54;;;;;;;60.88;27.27;;;;;;;-7.22;80.78;100480.38;7402532;19;20475;-68
2021/12/27 02:21:25;;;;;;;51.15;24.38;;;;;;;-7.21;80.70;100480.44;7401836;19;20022;-68
2021/12/27 02:23:55;;;;;;;57.25;25.92;;;;;;;-7.18;81.11;100472.06;7403675;19;20014;-68
2021/12/27 02:26:24;;;;;;;52.42;26.38;;;;;;;-7.15;80.91;100469.66;7398603;19;20015;-68
2021/12/27 02:28:52;;;;;;;54.05;26.88;;;;;;;-7.13;80.57;100474.81;7398264;19;20052;-68
2021/12/27 02:31:21;;;;;;;57.17;25.85;;;;;;;-7.13;80.18;100456.97;7400851;19;20036;-68
2021/12/27 02:33:49;;;;;;;58.85;27.55;;;;;;;-7.10;80.44;100470.75;7398170;19;20018;-67
2021/12/27 02:36:17;;;;;;;51.30;26.77;;;;;;;-7.08;80.80;100466.56;7397997;19;20019;-68
2021/12/27 02:38:48;;;;;;;67.95;28.60;;;;;;;-7.06;80.50;100464.97;7400416;19;20032;-68
2021/12/27 02:41:17;;;;;;;59.15;26.05;;;;;;;-7.02;80.99;100467.66;7398356;19;20014;-68
2021/12/27 02:43:45;;;;;;;61.08;27.23;;;;;;;-6.99;80.74;100466.09;7400159;19;20040;-68
2021/12/27 02:46:15;;;;;;;54.25;26.33;;;;;;;-6.96;80.53;100462.81;7396730;19;20010;-68
2021/12/27 02:48:48;;;;;;;57.17;26.42;;;;;;;-6.94;80.97;100461.22;7399885;19;20479;-67
2021/12/27 02:51:18;;;;;;;54.60;26.60;;;;;;;-6.92;80.47;100452.81;7398080;19;20025;-68
2021/12/27 02:53:49;;;;;;;59.42;27.83;;;;;;;-6.90;80.08;100450.34;7400055;19;20037;-68
2021/12/27 02:56:18;;;;;;;58.55;27.30;;;;;;;-6.89;80.18;100449.53;7397423;19;20027;-68
2021/12/27 02:58:47;;;;;;;58.30;26.80;;;;;;;-6.86;80.50;100449.69;7397486;19;20026;-68
2021/12/27 03:01:18;;;;;;;54.83;25.58;;;;;;;-6.82;80.42;100450.66;7397031;19;20515;-68
2021/12/27 03:03:46;;;;;;;48.35;24.05;;;;;;;-6.81;80.36;100450.75;7397411;19;20018;-67
2021/12/27 03:06:14;;;;;;;58.55;26.80;;;;;;;-6.80;80.23;100442.28;7397525;19;20031;-67
2021/12/27 03:08:44;;;;;;;56.30;25.95;;;;;;;-6.78;80.31;100429.63;7400289;19;20022;-68
2021/12/27 03:11:16;;;;;;;54.63;26.88;;;;;;;-6.74;80.52;100436.59;7397286;19;20022;-67
2021/12/27 03:13:50;;;;;;;54.70;25.63;;;;;;;-6.72;80.19;100427.31;7399500;19;20023;-68
2021/12/27 03:16:21;;;;;;;50.10;26.42;;;;;;;-6.69;80.22;100426.59;7397092;19;20018;-68
2021/12/27 03:18:51;;;;;;;55.50;26.77;;;;;;;-6.67;80.46;100423.28;7396591;19;20483;-68
2021/12/27 03:21:19;;;;;;;64.28;27.33;;;;;;;-6.64;80.41;100425.97;7396911;19;20035;-68
2021/12/27 03:23:50;;;;;;;55.85;27.25;;;;;;;-6.62;80.19;100418.34;7398993;19;20035;-67
2021/12/27 03:26:21;;;;;;;60.92;26.27;;;;;;;-6.59;80.73;100419.38;7396915;19;20014;-68
2021/12/27 03:28:49;;;;;;;57.58;27.30;;;;;;;-6.57;80.53;100420.31;7398561;19;20374;-68
2021/12/27 03:31:19;;;;;;;55.47;27.50;;;;;;;-6.55;80.65;100405.06;7399059;19;20018;-68
2021/12/27 03:33:47;;;;;;;56.10;27.95;;;;;;;-6.52;80.61;100397.56;7397753;19;20397;-67
2021/12/27 03:36:16;;;;;;;53.20;27.80;;;;;;;-6.50;80.31;100400.16;7396130;19;20018;-68
2021/12/27 03:38:47;;;;;;;58.08;27.85;;;;;;;-6.48;79.91;100399.41;7397962;19;20497;-68
2021/12/27 03:41:17;;;;;;;55.53;27.50;;;;;;;-6.46;80.83;100400.31;7398827;19;20019;-68
2021/12/27 03:43:48;;;;;;;55.45;28.05;;;;;;;-6.45;80.52;100396.13;7398808;19;20031;-68
2021/12/27 03:46:17;;;;;;;56.88;27.85;;;;;;;-6.42;80.83;100394.56;7395822;19;20023;-67
2021/12/27 03:48:46;;;;;;;57.03;26.90;;;;;;;-6.39;80.85;100388.72;7398156;19;20035;-68
2021/12/27 03:51:14;;;;;;;59.78;28.35;;;;;;;-6.38;80.46;100377.69;7395727;19;20421;-68
2021/12/27 03:53:42;;;;;;;55.53;26.15;;;;;;;-6.34;80.80;100381.22;7398005;19;20022;-67
2021/12/27 03:56:11;;;;;;;58.47;26.95;;;;;;;-6.33;80.82;100373.66;7395726;19;20026;-67
2021/12/27 03:58:54;;;;;;;54.60;25.63;;;;;;;-6.32;80.70;100369.41;7395939;19;20011;-67
2021/12/27 04:01:26;;;;;;;62.20;28.70;;;;;;;-6.29;80.54;100375.50;7398109;19;20063;-67
2021/12/27 04:03:57;;;;;;;55.00;25.80;;;;;;;-6.26;80.80;100378.16;7397925;19;20018;-67
2021/12/27 04:06:28;;;;;;;55.60;26.58;;;;;;;-6.23;80.75;100375.75;7395589;19;20019;-68
2021/12/27 04:08:56;;;;;;;61.75;27.85;;;;;;;-6.20;81.23;100375.00;7397800;19;20018;-68
2021/12/27 04:11:24;;;;;;;53.72;26.10;;;;;;;-6.18;79.97;100365.72;7397247;19;20035;-68
2021/12/27 04:13:52;;;;;;;57.80;27.35;;;;;;;-6.16;80.64;100348.78;7395639;19;20022;-68
2021/12/27 04:16:20;;;;;;;61.97;28.77;;;;;;;-6.13;80.43;100351.47;7395544;19;20035;-68
2021/12/27 04:18:51;;;;;;;51.10;25.58;;;;;;;-6.09;80.70;100360.09;7397205;19;20035;-68
2021/12/27 04:21:19;;;;;;;56.42;28.77;;;;;;;-6.06;80.99;100366.19;7397517;19;20035;-68
2021/12/27 04:23:47;;;;;;;57.75;26.95;;;;;;;-6.02;80.88;100371.44;7397017;19;20022;-67
2021/12/27 04:26:15;;;;;;;46.95;24.83;;;;;;;-6.00;80.86;100359.59;7395227;19;20026;-67
2021/12/27 04:28:44;;;;;;;53.50;26.80;;;;;;;-5.97;80.89;100370.75;7395180;19;20023;-67
2021/12/27 04:31:12;;;;;;;56.35;27.38;;;;;;;-5.93;80.95;100370.06;7394712;19;20413;-68
2021/12/27 04:33:41;;;;;;;54.08;27.20;;;;;;;-5.90;81.22;100372.75;7394809;19;20015;-67
2021/12/27 04:36:12;;;;;;;59.95;27.50;;;;;;;-5.87;80.98;100374.56;7395009;19;20022;-67
2021/12/27 04:38:42;;;;;;;55.55;26.70;;;;;;;-5.83;80.93;100381.53;7396728;19;20018;-67
2021/12/27 04:41:12;;;;;;;52.97;27.10;;;;;;;-5.80;81.30;100361.22;7396089;19;20041;-68
2021/12/27 04:43:40;;;;;;;52.17;27.05;;;;;;;-5.78;81.35;100362.13;7396304;19;20026;-67
2021/12/27 04:46:09;;;;;;;56.92;27.05;;;;;;;-5.75;80.99;100359.72;7394025;19;20014;-68
2021/12/27 04:48:37;;;;;;;54.13;25.85;;;;;;;-5.72;81.05;100356.38;7395599;19;20522;-68
2021/12/27 04:51:05;;;;;;;56.28;27.60;;;;;;;-5.69;81.26;100353.09;7394263;19;20015;-67
2021/12/27 04:53:36;;;;;;;54.35;24.50;;;;;;;-5.68;81.35;100345.47;7395857;19;20031;-68
2021/12/27 04:56:05;;;;;;;53.88;26.25;;;;;;;-5.62;81.03;100350.81;7394762;19;20040;-67
2021/12/27 04:58:33;;;;;;;55.67;26.67;;;;;;;-5.60;81.15;100341.53;7395438;19;20483;-67
2021/12/27 05:01:01;;;;;;;58.75;27.50;;;;;;;-5.59;81.25;100334.72;7395538;19;20022;-67
2021/12/27 05:03:29;;;;;;;59.10;27.27;;;;;;;-5.54;81.02;100343.41;7395616;19;20022;-67
2021/12/27 05:05:57;;;;;;;59.85;27.20;;;;;;;-5.52;81.06;100336.69;7394172;19;20022;-67
2021/12/27 05:08:25;;;;;;;59.53;27.88;;;;;;;-5.49;81.39;100341.03;7395207;19;20011;-68
2021/12/27 05:10:56;;;;;;;56.25;27.50;;;;;;;-5.48;81.36;100338.53;7395014;19;20333;-66
2021/12/27 05:13:24;;;;;;;57.88;28.42;;;;;;;-5.46;81.45;100334.38;7393986;19;20508;-66
2021/12/27 05:15:53;;;;;;;56.17;26.85;;;;;;;-5.45;81.24;100328.41;7393427;19;20027;-67
2021/12/27 05:18:21;;;;;;;63.13;27.85;;;;;;;-5.46;81.46;100325.81;7393634;19;20018;-67
2021/12/27 05:20:49;;;;;;;58.13;28.05;;;;;;;-5.46;81.46;100323.25;7392939;19;20511;-67
2021/12/27 05:23:17;;;;;;;53.40;29.00;;;;;;;-5.40;81.60;100334.59;7393533;19;20019;-67
2021/12/27 05:25:46;;;;;;;55.13;27.55;;;;;;;-5.36;81.99;100332.13;7393268;19;20018;-67
2021/12/27 05:28:16;;;;;;;57.85;30.42;;;;;;;-5.34;81.85;100333.06;7393128;19;20068;-67
2021/12/27 05:30:51;;;;;;;60.92;28.42;;;;;;;-5.33;82.12;100322.00;7393414;19;20040;-67
2021/12/27 05:33:19;;;;;;;;;;;;;;;-5.30;82.01;100328.09;7393046;19;20496;-66
2021/12/27 05:35:47;;;;;;;60.22;28.50;;;;;;;-5.28;82.47;100333.28;7392919;19;20339;-67
2021/12/27 05:38:16;;;;;;;55.80;27.80;;;;;;;-5.27;82.38;100329.88;7394334;19;20483;-66
2021/12/27 05:40:44;;;;;;;62.92;30.27;;;;;;;-5.25;82.49;100329.13;7394399;19;20370;-67
2021/12/27 05:43:13;;;;;;;57.67;30.23;;;;;;;-5.23;82.66;100326.66;7395166;19;20019;-68
2021/12/27 05:45:44;;;;;;;60.38;30.30;;;;;;;-5.22;82.66;100325.81;7391360;19;20007;-66
2021/12/27 05:48:12;;;;;;;60.22;29.90;;;;;;;-5.19;82.70;100332.72;7394733;19;20019;-66
2021/12/27 05:50:40;;;;;;;57.40;29.75;;;;;;;-5.22;83.00;100320.69;7394398;19;20040;-68
2021/12/27 05:53:08;;;;;;;60.20;29.52;;;;;;;-5.15;82.90;100314.97;7391897;19;20350;-66
2021/12/27 05:55:36;;;;;;;60.97;30.90;;;;;;;-5.12;83.00;100311.66;7392572;19;20349;-67
2021/12/27 05:58:06;;;;;;;56.83;29.15;;;;;;;-5.10;83.23;100304.91;7392127;19;20098;-67
2021/12/27 06:00:35;;;;;;;64.45;30.48;;;;;;;-5.08;83.18;100298.16;7391852;19;20019;-67
2021/12/27 06:03:06;;;;;;;63.95;29.88;;;;;;;-5.07;83.53;100303.34;7391910;19;20043;-67
2021/12/27 06:05:34;;;;;;;60.53;31.30;;;;;;;-5.04;83.33;100304.25;7391892;19;20032;-67
2021/12/27 06:08:03;;;;;;;60.13;32.13;;;;;;;-5.02;83.34;100306.03;7391674;19;20022;-67
2021/12/27 06:10:31;;;;;;;66.45;31.17;;;;;;;-5.00;83.53;100295.88;7391411;19;20036;-67
2021/12/27 06:12:59;;;;;;;66.88;29.85;;;;;;;-4.98;83.72;100299.34;7393198;19;20011;-67
2021/12/27 06:15:27;;;;;;;65.50;31.23;;;;;;;-4.98;83.50;100297.66;7392310;19;20019;-67
2021/12/27 06:17:55;;;;;;;57.97;30.63;;;;;;;-4.95;83.61;100313.13;7393559;19;20015;-67
2021/12/27 06:20:26;;;;;;;57.78;30.92;;;;;;;-4.93;83.50;100303.81;7394966;19;20037;-67
2021/12/27 06:23:04;;;;;;;59.00;29.42;;;;;;;-4.93;83.61;100308.03;7398707;19;20019;-67
2021/12/27 06:25:39;;;;;;;62.25;31.98;;;;;;;-4.89;83.76;100316.69;7399120;19;20040;-67
2021/12/27 06:28:07;;;;;;;56.10;29.25;;;;;;;-4.88;83.79;100310.78;7401007;19;20014;-67
2021/12/27 06:30:35;;;;;;;62.42;29.42;;;;;;;-4.87;83.62;100313.38;7400644;19;20018;-67
2021/12/27 06:33:06;;;;;;;61.22;31.58;;;;;;;-4.86;83.61;100310.00;7400627;19;20018;-67
2021/12/27 06:35:37;;;;;;;62.65;31.55;;;;;;;-4.85;83.68;100306.63;7399150;19;20024;-67
2021/12/27 06:38:06;;;;;;;62.13;29.83;;;;;;;-4.83;83.48;100304.13;7398105;19;20031;-67
2021/12/27 06:40:35;;;;;;;91.93;42.35;;;;;;;-4.83;83.43;100307.53;7399948;19;20522;-67
2021/12/27 06:43:03;;;;;;;80.90;38.83;;;;;;;-4.82;83.70;100303.31;7400193;19;20030;-66
2021/12/27 06:45:31;;;;;;;68.35;31.23;;;;;;;-4.81;83.45;100305.91;7397966;19;20014;-67
2021/12/27 06:47:59;;;;;;;66.95;32.90;;;;;;;-4.81;83.57;100297.38;7397178;19;20507;-66
2021/12/27 06:50:28;;;;;;;63.75;32.15;;;;;;;-4.78;83.55;100300.00;7400027;19;20031;-67
2021/12/27 06:52:58;;;;;;;75.07;33.38;;;;;;;-4.79;83.72;100305.94;7399494;19;20034;-67
2021/12/27 06:55:27;;;;;;;68.13;32.72;;;;;;;-4.78;83.68;100298.34;7398759;19;20018;-67
2021/12/27 06:57:55;;;;;;;63.78;33.70;;;;;;;-4.77;83.62;100289.81;7399837;19;20015;-67
2021/12/27 07:00:23;;;;;;;73.18;34.15;;;;;;;-4.75;83.76;100295.00;7399745;19;20028;-67
2021/12/27 07:02:51;;;;;;;61.58;31.80;;;;;;;-4.72;83.57;100294.25;7396633;19;20500;-66
2021/12/27 07:05:20;;;;;;;69.82;32.80;;;;;;;-4.72;83.76;100291.69;7396717;19;20018;-67
2021/12/27 07:07:48;;;;;;;64.38;32.40;;;;;;;-4.73;83.73;100284.81;7399416;19;20040;-67
2021/12/27 07:10:22;;;;;;;65.43;31.83;;;;;;;-4.71;83.43;100294.28;7399257;19;20031;-66
2021/12/27 07:12:50;;;;;;;64.75;32.05;;;;;;;-4.69;83.57;100287.50;7397296;19;20022;-66
2021/12/27 07:15:18;;;;;;;57.55;29.48;;;;;;;-4.69;83.72;100287.50;7397748;19;20015;-66
2021/12/27 07:17:46;;;;;;;61.17;31.73;;;;;;;-4.65;83.97;100291.94;7396303;19;20361;-66
2021/12/27 07:20:15;;;;;;;64.70;34.05;;;;;;;-4.65;83.85;100288.47;7398962;19;20014;-66
2021/12/27 07:22:43;;;;;;;66.88;33.90;;;;;;;-4.63;83.86;100287.72;7395886;19;20344;-67
2021/12/27 07:25:11;;;;;;;69.05;34.53;;;;;;;-4.62;83.79;100289.47;7397664;19;20023;-66
2021/12/27 07:27:43;;;;;;;71.78;33.53;;;;;;;-4.60;83.82;100284.38;7398623;19;20033;-67
2021/12/27 07:30:14;;;;;;;71.88;35.97;;;;;;;-4.60;83.82;100289.50;7396686;19;20022;-66
2021/12/27 07:32:42;;;;;;;69.28;35.22;;;;;;;-4.58;83.95;100293.84;7396051;19;20040;-66
2021/12/27 07:35:12;;;;;;;63.65;34.03;;;;;;;-4.55;84.32;100297.34;7397353;19;20022;-66
2021/12/27 07:37:40;;;;;;;68.63;33.83;;;;;;;-4.52;84.58;100300.03;7398412;19;20355;-66
2021/12/27 07:40:09;;;;;;;69.30;35.17;;;;;;;-4.49;84.67;100293.28;7397898;19;20022;-67
2021/12/27 07:42:38;;;;;;;73.00;35.80;;;;;;;-4.47;84.86;100291.66;7397379;19;20014;-66
2021/12/27 07:45:09;;;;;;;78.28;35.97;;;;;;;-4.49;84.51;100285.59;7397735;19;20205;-66
2021/12/27 07:47:38;;;;;;;73.15;34.50;;;;;;;-4.43;84.63;100290.91;7398045;19;20007;-68
2021/12/27 07:50:08;;;;;;;68.15;34.28;;;;;;;-4.41;84.71;100280.72;7398464;19;20365;-67
2021/12/27 07:52:36;;;;;;;72.85;35.70;;;;;;;-4.39;84.90;100284.19;7398655;19;20015;-66
2021/12/27 07:55:06;;;;;;;66.75;34.85;;;;;;;-4.36;84.73;100281.75;7397511;19;20136;-67
2021/12/27 07:57:34;;;;;;;75.18;38.10;;;;;;;-4.33;84.92;100276.72;7397727;19;20015;-67
2021/12/27 08:00:02;;;;;;;72.90;36.08;;;;;;;-4.31;84.79;100272.53;7397680;19;20029;-67
2021/12/27 08:02:33;;;;;;;76.03;37.47;;;;;;;-4.27;85.16;100271.78;7396200;19;20483;-67
2021/12/27 08:05:01;;;;;;;65.90;33.55;;;;;;;-4.24;84.87;100258.19;7397197;19;20018;-67
2021/12/27 08:07:29;;;;;;;70.20;34.17;;;;;;;-4.23;84.66;100265.06;7395439;19;20032;-67
2021/12/27 08:09:58;;;;;;;70.47;36.25;;;;;;;-4.23;84.96;100262.50;7395476;19;20018;-67
2021/12/27 08:12:26;;;;;;;70.05;35.53;;;;;;;-4.22;84.79;100259.13;7397236;19;20014;-67
2021/12/27 08:14:54;;;;;;;75.03;36.50;;;;;;;-4.21;84.84;100263.41;7394574;19;20483;-66
2021/12/27 08:17:22;;;;;;;65.85;34.05;;;;;;;-4.20;85.08;100267.72;7396322;19;20499;-67
2021/12/27 08:19:53;;;;;;;73.47;34.88;;;;;;;-4.19;84.84;100266.91;7396573;19;20378;-67
2021/12/27 08:22:21;;;;;;;74.53;36.53;;;;;;;-4.17;85.12;100278.06;7396957;19;20031;-67
2021/12/27 08:24:49;;;;;;;70.30;35.15;;;;;;;-4.15;85.02;100278.97;7394436;19;20459;-66
2021/12/27 08:27:18;;;;;;;68.38;34.65;;;;;;;-4.13;84.95;100267.09;7394877;19;20044;-66
2021/12/27 08:29:46;;;;;;;70.75;35.95;;;;;;;-4.10;85.34;100268.88;7396202;19;20011;-66
2021/12/27 08:32:15;;;;;;;68.00;35.22;;;;;;;-4.08;85.04;100262.09;7396657;19;20031;-67
2021/12/27 08:34:43;;;;;;;71.80;36.88;;;;;;;-4.04;85.08;100257.91;7395558;19;20040;-66
2021/12/27 08:37:14;;;;;;;68.20;35.05;;;;;;;-4.01;85.11;100263.16;7393719;19;20460;-67
2021/12/27 08:39:42;;;;;;;70.10;35.92;;;;;;;-3.99;85.11;100257.25;7394665;19;20022;-66
2021/12/27 08:42:11;;;;;;;71.90;36.10;;;;;;;-3.96;85.31;100269.28;7395377;19;20456;-66
2021/12/27 08:44:39;;;;;;;68.82;35.20;;;;;;;-3.96;85.04;100265.00;7394375;19;20022;-67
2021/12/27 08:47:09;;;;;;;74.63;36.35;;;;;;;-3.90;85.30;100272.03;7394050;19;20621;-67
2021/12/27 08:49:37;;;;;;;68.03;35.45;;;;;;;-3.86;85.27;100273.00;7396026;19;20044;-67
2021/12/27 08:52:06;;;;;;;69.57;36.25;;;;;;;-3.83;85.25;100267.94;7394328;19;20018;-67
2021/12/27 08:54:37;;;;;;;70.55;35.35;;;;;;;-3.80;85.40;100268.91;7395542;19;20015;-67
2021/12/27 08:57:09;;;;;;;67.43;36.22;;;;;;;-3.76;85.16;100262.16;7395946;19;20488;-67
2021/12/27 08:59:37;;;;;;;70.43;35.97;;;;;;;-3.73;85.33;100257.13;7396260;19;20018;-67
2021/12/27 09:02:07;;;;;;;67.43;35.63;;;;;;;-3.68;85.13;100257.25;7393890;19;20022;-67
2021/12/27 09:04:35;;;;;;;76.68;37.35;;;;;;;-3.69;85.03;100247.81;7395401;19;20324;-67
2021/12/27 09:07:04;;;;;;;69.68;35.20;;;;;;;-3.67;85.20;100243.63;7394337;19;20015;-68
2021/12/27 09:09:32;;;;;;;70.60;37.08;;;;;;;-3.58;85.07;100255.81;7393715;19;20014;-66
2021/12/27 09:12:03;;;;;;;70.22;35.00;;;;;;;-3.55;85.22;100253.34;7395374;19;20031;-66
2021/12/27 09:14:31;;;;;;;66.35;35.95;;;;;;;-3.52;85.06;100256.84;7395224;19;20018;-66
2021/12/27 09:16:59;;;;;;;69.63;34.30;;;;;;;-3.50;84.96;100252.66;7395094;19;20039;-67
2021/12/27 09:19:27;;;;;;;65.53;34.75;;;;;;;-3.47;85.01;100250.16;7395118;19;20010;-66
2021/12/27 09:21:56;;;;;;;66.57;35.67;;;;;;;-3.42;85.14;100254.53;7395170;19;20022;-67
2021/12/27 09:24:24;;;;;;;68.28;35.08;;;;;;;-3.39;85.14;100262.31;7394703;19;20032;-67
2021/12/27 09:26:53;;;;;;;70.38;35.55;;;;;;;-3.36;84.71;100258.16;7392922;19;20033;-67
2021/12/27 09:29:23;;;;;;;92.57;45.60;;;;;;;-3.33;84.79;100259.94;7394572;19;20396;-66
2021/12/27 09:31:52;;;;;;;69.75;36.75;;;;;;;-3.35;84.96;100241.94;7394593;19;20352;-67
2021/12/27 09:34:21;;;;;;;66.07;34.72;;;;;;;-3.27;84.89;100249.84;7394068;19;20092;-66
2021/12/27 09:36:49;;;;;;;63.42;33.67;;;;;;;-3.23;84.72;100241.38;7394574;19;20034;-67
2021/12/27 09:39:17;;;;;;;72.72;35.95;;;;;;;-3.22;84.85;100231.97;7392246;19;20365;-67
2021/12/27 09:41:46;;;;;;;64.00;34.80;;;;;;;-3.17;84.57;100235.53;7393821;19;20041;-67
2021/12/27 09:44:15;;;;;;;72.22;36.88;;;;;;;-3.15;84.34;100224.47;7393787;19;20498;-67
2021/12/27 09:46:46;;;;;;;70.97;38.30;;;;;;;-3.11;84.61;100233.13;7392900;19;20019;-67
2021/12/27 09:49:17;;;;;;;67.57;36.28;;;;;;;-3.08;84.90;100229.75;7392852;19;20018;-67
2021/12/27 09:51:47;;;;;;;72.78;37.10;;;;;;;-3.05;84.66;100224.72;7394099;19;20480;-67
2021/12/27 09:54:16;;;;;;;75.88;37.33;;;;;;;-3.03;84.99;100228.19;7394664;19;20027;-68
2021/12/27 09:56:44;;;;;;;65.97;35.88;;;;;;;-3.01;84.53;100222.28;7397577;19;20475;-66
2021/12/27 09:59:12;;;;;;;69.57;36.78;;;;;;;-2.98;84.77;100216.34;7402057;19;20036;-66
2021/12/27 10:01:41;;;;;;;73.00;38.05;;;;;;;-2.95;85.03;100217.28;7401348;19;20011;-66
2021/12/27 10:04:11;;;;;;;62.30;33.38;;;;;;;-2.92;84.92;100213.91;7401498;19;20024;-66
2021/12/27 10:06:40;;;;;;;64.55;35.45;;;;;;;-2.86;85.06;100215.78;7398453;19;20015;-66
2021/12/27 10:09:08;;;;;;;66.28;35.22;;;;;;;-2.82;85.15;100215.91;7402101;19;20014;-66
2021/12/27 10:11:42;;;;;;;65.80;33.30;;;;;;;-2.79;84.70;100205.69;7398548;19;20031;-66
2021/12/27 10:14:13;;;;;;;61.47;32.65;;;;;;;-2.75;84.99;100198.94;7401521;19;20029;-67
2021/12/27 10:16:45;;;;;;;61.90;33.60;;;;;;;-2.70;84.90;100209.31;7398297;19;20015;-66
2021/12/27 10:19:18;;;;;;;63.55;33.47;;;;;;;-2.66;84.72;100205.97;7401496;19;20060;-67
2021/12/27 10:21:46;;;;;;;63.67;33.75;;;;;;;-2.62;84.92;100198.41;7401430;19;20024;-64
2021/12/27 10:24:17;;;;;;;62.15;31.55;;;;;;;-2.57;84.94;100190.78;7397840;19;20022;-65
2021/12/27 10:26:46;;;;;;;61.95;33.50;;;;;;;-2.52;85.07;100181.47;7397671;19;20019;-64
2021/12/27 10:29:18;;;;;;;60.47;32.45;;;;;;;-2.46;85.13;100175.63;7398943;19;20218;-63
2021/12/27 10:31:58;;;;;;;57.30;31.35;;;;;;;-2.41;84.76;100176.59;7398019;19;20023;-64
2021/12/27 10:34:31;;;;;;;64.68;33.25;;;;;;;-2.36;85.02;100176.69;7400328;19;20019;-64
2021/12/27 10:37:02;;;;;;;55.40;30.38;;;;;;;-2.31;84.95;100169.94;7400668;19;20060;-64
2021/12/27 10:39:31;;;;;;;60.40;32.67;;;;;;;-2.26;85.02;100172.59;7399993;19;20365;-64
2021/12/27 10:42:09;;;;;;;60.05;31.17;;;;;;;-2.23;85.11;100170.97;7400090;19;20035;-63
2021/12/27 10:44:38;;;;;;;58.10;30.00;;;;;;;-2.18;85.04;100166.78;7397524;19;20024;-68
2021/12/27 10:47:24;;;;;;;55.63;31.58;;;;;;;-2.12;84.92;100176.34;7396851;19;20011;-65
2021/12/27 10:50:02;;;;;;;57.15;29.88;;;;;;;-2.06;84.84;100166.19;7400124;19;20018;-66
2021/12/27 10:52:45;;;;;;;57.35;29.95;;;;;;;-2.00;85.15;100160.28;7398589;19;20486;-66
2021/12/27 10:55:13;;;;;;;53.92;28.80;;;;;;;-1.95;84.84;100158.66;7397751;19;20018;-65
2021/12/27 10:57:42;;;;;;;55.78;29.55;;;;;;;-1.88;85.01;100155.38;7399851;19;20019;-66
2021/12/27 11:00:18;;;;;;;51.95;28.40;;;;;;;-1.81;84.95;100156.38;7397647;19;20019;-63
2021/12/27 11:02:47;;;;;;;51.92;26.40;;;;;;;-1.76;85.02;100149.59;7397437;19;20421;-65
2021/12/27 11:05:21;;;;;;;54.20;27.70;;;;;;;-1.74;84.98;100136.78;7398492;19;20039;-66
2021/12/27 11:07:49;;;;;;;52.15;27.40;;;;;;;-1.61;84.75;100151.59;7396600;19;20079;-62
2021/12/27 11:10:17;;;;;;;53.35;29.13;;;;;;;-1.55;84.68;100156.84;7399243;19;20031;-68
2021/12/27 11:12:45;;;;;;;45.47;24.83;;;;;;;-1.49;84.88;100146.69;7397147;19;20031;-63
2021/12/27 11:15:13;;;;;;;54.90;27.90;;;;;;;-1.42;84.74;100145.06;7396748;19;20023;-62
2021/12/27 11:17:42;;;;;;;50.05;25.95;;;;;;;-1.36;84.75;100145.19;7399554;19;20018;-63
2021/12/27 11:20:13;;;;;;;46.58;25.75;;;;;;;-1.33;84.56;100128.94;7396535;19;20022;-63